Time;durP1;ratioP1;P1;durP2;ratioP2;P2;SDS_P1;SDS_P2;PMS_P1;PMS_P2;Temp;Humidity;BMP_temperature;BMP_pressure;BME280_temperature;BME280_humidity;BME280_pressure;Samples;Min_cycle;Max_cycle;Signal;HPM_P1;HPM_P2
2022/03/20 00:00:09;;;;;;;20.30;12.27;;;;;;;3.69;58.84;97785.22;5094920;28;20180;-64
2022/03/20 00:02:35;;;;;;;15.83;12.20;;;;;;;3.76;58.36;97786.22;5095009;28;20181;-63
2022/03/20 00:05:03;;;;;;;18.47;12.10;;;;;;;3.85;57.76;97779.25;5076727;28;20177;-63
2022/03/20 00:07:31;;;;;;;17.77;12.70;;;;;;;3.91;56.87;97788.19;5095225;28;20176;-63
2022/03/20 00:09:58;;;;;;;19.90;12.43;;;;;;;3.82;57.62;97782.19;5094513;28;20165;-63
2022/03/20 00:12:23;;;;;;;17.67;12.33;;;;;;;3.82;57.77;97789.16;5094518;28;20173;-64
2022/03/20 00:14:48;;;;;;;17.97;11.97;;;;;;;3.70;57.48;97784.28;5094827;28;20180;-63
2022/03/20 00:17:14;;;;;;;19.33;12.50;;;;;;;3.85;57.75;97779.25;5076520;28;20219;-63
2022/03/20 00:19:40;;;;;;;18.03;11.87;;;;;;;3.72;57.40;97778.94;5094774;28;20628;-62
2022/03/20 00:22:06;;;;;;;16.63;11.60;;;;;;;3.80;56.91;97788.50;5094681;28;20259;-63
2022/03/20 00:24:32;;;;;;;18.93;11.73;;;;;;;3.78;57.08;97773.13;5094323;28;20193;-63
2022/03/20 00:26:58;;;;;;;17.87;11.30;;;;;;;3.75;57.90;97774.22;5094246;28;20187;-65
2022/03/20 00:29:28;;;;;;;17.77;12.83;;;;;;;3.70;57.47;97773.91;5094328;28;20184;-63
2022/03/20 00:31:53;;;;;;;19.37;11.80;;;;;;;3.80;57.70;97770.34;5094290;28;20205;-63
2022/03/20 00:34:19;;;;;;;16.17;11.43;;;;;;;3.62;56.67;97771.28;5094678;28;20592;-63
2022/03/20 00:36:44;;;;;;;15.73;11.10;;;;;;;3.78;56.98;97772.31;5094727;28;20168;-63
2022/03/20 00:39:10;;;;;;;17.60;12.10;;;;;;;3.61;57.44;97776.66;5075881;28;20181;-63
2022/03/20 00:41:35;;;;;;;20.87;11.90;;;;;;;3.69;57.47;97772.28;5094204;28;20185;-63
2022/03/20 00:44:01;;;;;;;17.43;11.53;;;;;;;3.72;57.17;97768.56;5094334;28;20211;-63
2022/03/20 00:46:29;;;;;;;17.27;11.00;;;;;;;3.91;56.19;97767.44;5094124;28;20176;-63
2022/03/20 00:48:55;;;;;;;17.53;11.70;;;;;;;3.76;56.16;97769.88;5075946;28;20177;-63
2022/03/20 00:51:20;;;;;;;21.00;12.57;;;;;;;3.85;55.97;97763.72;5093572;28;20200;-63
2022/03/20 00:53:46;;;;;;;22.20;11.23;;;;;;;3.84;56.42;97762.13;5094112;28;20184;-63
2022/03/20 00:56:12;;;;;;;16.67;11.27;;;;;;;3.82;56.08;97755.44;5093959;28;20256;-63
2022/03/20 00:58:38;;;;;;;19.30;12.47;;;;;;;3.80;56.53;97765.16;5093646;28;20640;-63
2022/03/20 01:01:04;;;;;;;18.17;12.07;;;;;;;3.75;55.11;97760.47;5093380;28;20177;-62
2022/03/20 01:03:30;;;;;;;18.90;11.50;;;;;;;3.79;55.09;97763.56;5093517;28;20180;-63
2022/03/20 01:05:55;;;;;;;17.93;11.60;;;;;;;3.83;55.52;97759.66;5093954;28;20664;-63
2022/03/20 01:08:20;;;;;;;17.73;11.63;;;;;;;3.89;54.84;97751.25;5093186;28;20188;-63
2022/03/20 01:10:46;;;;;;;19.53;12.10;;;;;;;3.88;54.66;97760.81;5093578;28;20214;-62
2022/03/20 01:13:11;;;;;;;19.10;11.27;;;;;;;3.76;55.33;97759.50;5093520;28;20243;-63
2022/03/20 01:15:37;;;;;;;15.93;10.93;;;;;;;3.72;54.83;97753.81;5093604;28;20173;-62
2022/03/20 01:18:03;;;;;;;17.83;11.80;;;;;;;3.74;54.51;97753.63;5093623;28;20613;-63
2022/03/20 01:20:28;;;;;;;19.07;12.60;;;;;;;3.72;55.27;97748.63;5093514;28;20749;-62
2022/03/20 01:22:54;;;;;;;19.77;11.63;;;;;;;3.85;54.47;97752.53;5093601;28;20189;-62
2022/03/20 01:25:19;;;;;;;20.97;12.10;;;;;;;3.78;55.30;97746.38;5074790;28;20185;-62
2022/03/20 01:27:46;;;;;;;16.00;11.30;;;;;;;3.91;54.97;97749.28;5093506;28;20189;-63
2022/03/20 01:30:11;;;;;;;23.80;13.17;;;;;;;3.75;54.92;97742.31;5093446;28;20251;-62
2022/03/20 01:32:37;;;;;;;16.33;11.27;;;;;;;3.77;55.76;97740.38;5075231;28;20284;-63
2022/03/20 01:35:02;;;;;;;18.53;12.53;;;;;;;3.88;55.45;97739.25;5093356;28;20212;-63
2022/03/20 01:37:28;;;;;;;18.13;12.50;;;;;;;3.82;54.96;97739.88;5093877;28;20180;-63
2022/03/20 01:39:54;;;;;;;17.47;11.90;;;;;;;3.92;55.41;97737.94;5075415;28;20271;-62
2022/03/20 01:42:21;;;;;;;20.57;12.37;;;;;;;4.02;54.42;97739.41;5093278;28;20172;-63
2022/03/20 01:44:48;;;;;;;17.53;11.60;;;;;;;4.02;54.77;97739.41;5075109;28;20180;-63
2022/03/20 01:47:13;;;;;;;17.07;11.93;;;;;;;3.99;55.13;97736.34;5093138;28;20184;-63
2022/03/20 01:49:39;;;;;;;17.17;11.30;;;;;;;4.01;55.48;97742.97;5092737;28;20180;-63
2022/03/20 01:52:11;;;;;;;21.80;12.00;;;;;;;4.10;55.22;97741.22;5093146;28;20196;-63
2022/03/20 01:54:44;;;;;;;18.40;11.93;;;;;;;4.13;55.32;97727.91;5092729;28;20303;-62
2022/03/20 01:57:16;;;;;;;16.27;11.00;;;;;;;3.98;54.88;97724.34;5093233;28;20257;-62
2022/03/20 01:59:42;;;;;;;18.47;11.67;;;;;;;3.91;55.58;97715.56;5092972;28;20173;-63
2022/03/20 02:02:08;;;;;;;20.67;12.23;;;;;;;3.87;55.77;97711.69;5092825;28;20254;-63
2022/03/20 02:04:35;;;;;;;17.30;11.97;;;;;;;4.04;55.26;97719.31;5093207;28;20215;-62
2022/03/20 02:07:02;;;;;;;19.07;11.77;;;;;;;4.19;55.33;97719.47;5075206;28;20169;-63
2022/03/20 02:09:27;;;;;;;21.13;12.57;;;;;;;4.12;55.08;97721.13;5093091;28;20173;-63
2022/03/20 02:11:54;;;;;;;18.10;12.70;;;;;;;4.03;55.63;97728.06;5092724;28;20200;-63
2022/03/20 02:14:21;;;;;;;19.53;11.93;;;;;;;4.15;55.02;97723.38;5092916;28;20252;-63
2022/03/20 02:16:46;;;;;;;17.63;11.97;;;;;;;4.25;54.84;97725.78;5092873;28;20179;-62
2022/03/20 02:19:15;;;;;;;19.53;12.77;;;;;;;4.22;55.71;97718.34;5093063;28;20247;-63
2022/03/20 02:21:42;;;;;;;18.57;11.17;;;;;;;4.16;55.45;97717.22;5097291;28;20184;-62
2022/03/20 02:24:49;;;;;;;19.30;12.60;;;;;;;4.24;54.75;97713.78;5078495;28;20185;-63
2022/03/20 02:27:17;;;;;;;19.63;12.90;;;;;;;4.18;54.85;97715.25;5078731;28;20505;-63
2022/03/20 02:29:56;;;;;;;19.80;12.80;;;;;;;4.22;55.34;97713.16;5096802;28;20172;-62
2022/03/20 02:32:24;;;;;;;19.33;12.60;;;;;;;4.00;55.94;97705.06;5096828;28;20213;-63
2022/03/20 02:34:50;;;;;;;17.80;11.93;;;;;;;4.11;55.44;97703.94;5097119;28;20177;-62
2022/03/20 02:37:21;;;;;;;16.07;11.70;;;;;;;4.12;55.90;97701.16;5078428;28;20168;-63
2022/03/20 02:39:47;;;;;;;19.77;12.20;;;;;;;4.04;55.71;97695.16;5096680;28;20204;-62
2022/03/20 02:42:15;;;;;;;19.60;12.50;;;;;;;4.14;55.70;97693.22;5096653;28;20176;-62
2022/03/20 02:44:56;;;;;;;19.67;12.63;;;;;;;4.10;55.72;97704.88;5096489;28;20629;-63
2022/03/20 02:47:26;;;;;;;21.33;12.43;;;;;;;4.11;56.43;97701.34;5078548;28;20608;-63
2022/03/20 02:50:05;;;;;;;17.73;12.10;;;;;;;4.10;56.23;97702.31;5096299;28;20165;-64
2022/03/20 02:52:43;;;;;;;23.47;12.30;;;;;;;4.05;56.27;97702.78;5096682;28;20171;-62
2022/03/20 02:55:09;;;;;;;20.47;12.87;;;;;;;4.03;56.59;97702.13;5096664;28;20745;-63
2022/03/20 02:57:34;;;;;;;21.33;13.77;;;;;;;4.05;56.18;97705.38;5096058;28;20192;-62
2022/03/20 03:00:03;;;;;;;20.40;13.13;;;;;;;4.16;56.23;97707.66;5096562;28;20203;-63
2022/03/20 03:02:31;;;;;;;18.13;12.43;;;;;;;3.98;56.79;97706.19;5096131;28;20203;-63
2022/03/20 03:05:00;;;;;;;20.20;13.07;;;;;;;4.05;56.78;97702.78;5078080;28;20585;-63
2022/03/20 03:07:30;;;;;;;23.00;13.73;;;;;;;4.00;56.81;97704.25;5096185;28;20179;-63
2022/03/20 03:12:55;;;;;;;20.60;12.07;;;;;;;4.12;56.59;97703.75;5033290;28;20262;-63
2022/03/20 03:15:21;;;;;;;23.07;13.13;;;;;;;4.08;57.28;97702.44;5082867;28;20610;-63
2022/03/20 03:17:50;;;;;;;21.37;13.17;;;;;;;3.87;56.96;97699.53;5096038;28;20169;-63
2022/03/20 03:20:19;;;;;;;19.53;12.57;;;;;;;3.89;58.37;97705.38;5095944;28;20203;-63
2022/03/20 03:22:44;;;;;;;19.07;12.50;;;;;;;3.91;57.70;97715.56;5095876;28;20172;-63
2022/03/20 03:25:11;;;;;;;21.73;12.53;;;;;;;3.92;58.20;97712.84;5095303;28;20184;-63
2022/03/20 03:27:37;;;;;;;17.53;12.27;;;;;;;3.85;58.34;97716.22;5095736;28;20263;-62
2022/03/20 03:30:04;;;;;;;21.47;13.00;;;;;;;3.98;57.66;97721.75;5095590;28;20291;-62
2022/03/20 03:32:30;;;;;;;22.97;13.30;;;;;;;4.08;57.43;97723.19;5095005;28;20181;-62
2022/03/20 03:37:40;;;;;;;24.00;13.80;;;;;;;4.10;58.06;97716.09;5095592;28;20172;-63
2022/03/20 03:40:07;;;;;;;22.23;13.47;;;;;;;4.14;57.69;97721.75;5095289;28;20180;-63
2022/03/20 03:42:34;;;;;;;23.90;13.87;;;;;;;4.11;57.23;97716.91;5077251;28;20184;-64
2022/03/20 03:45:01;;;;;;;19.10;13.80;;;;;;;4.15;58.11;97724.19;5095340;28;20644;-63
2022/03/20 03:47:27;;;;;;;21.00;13.50;;;;;;;4.16;57.51;97718.03;5095354;28;20173;-62
2022/03/20 03:49:53;;;;;;;23.63;15.37;;;;;;;4.26;57.25;97719.63;5095325;28;20176;-62
2022/03/20 03:52:19;;;;;;;22.40;14.57;;;;;;;4.29;57.26;97725.28;5095001;28;20196;-63
2022/03/20 03:54:44;;;;;;;21.50;14.50;;;;;;;4.29;57.39;97725.28;5094905;28;20235;-62
2022/03/20 03:57:10;;;;;;;22.03;14.60;;;;;;;4.32;57.92;97727.56;5077142;28;20180;-63
2022/03/20 03:59:35;;;;;;;22.77;15.00;;;;;;;4.16;57.79;97720.63;5094844;28;20601;-62
2022/03/20 04:02:01;;;;;;;24.03;14.67;;;;;;;4.16;58.09;97725.00;5094936;28;20704;-62
2022/03/20 04:04:27;;;;;;;22.73;14.40;;;;;;;4.08;58.87;97720.63;5095478;28;20176;-63
2022/03/20 04:06:54;;;;;;;22.43;14.17;;;;;;;4.07;58.73;97720.75;5094634;28;20176;-63
2022/03/20 04:09:20;;;;;;;21.97;13.47;;;;;;;4.02;58.53;97716.06;5094543;28;20180;-63
2022/03/20 04:11:45;;;;;;;21.77;13.70;;;;;;;4.06;58.68;97721.75;5095082;28;20205;-63
2022/03/20 04:14:10;;;;;;;20.33;13.87;;;;;;;4.01;59.23;97713.66;5094656;28;20168;-62
2022/03/20 04:16:36;;;;;;;22.80;14.80;;;;;;;4.00;59.15;97712.84;5094927;28;20238;-63
2022/03/20 04:19:01;;;;;;;25.77;14.47;;;;;;;4.00;59.03;97714.63;5094755;28;20227;-66
2022/03/20 04:21:27;;;;;;;19.93;13.80;;;;;;;3.94;59.92;97713.50;5094522;28;20180;-63
2022/03/20 04:23:52;;;;;;;20.80;14.10;;;;;;;3.94;59.59;97710.09;5094409;28;20249;-63
2022/03/20 04:26:22;;;;;;;23.47;14.60;;;;;;;3.97;60.08;97714.94;5094032;28;20219;-63
2022/03/20 04:28:48;;;;;;;21.63;14.10;;;;;;;3.96;60.25;97719.31;5094445;28;20181;-63
2022/03/20 04:31:15;;;;;;;24.30;14.47;;;;;;;3.93;59.91;97721.44;5094327;28;20201;-63
2022/03/20 04:33:45;;;;;;;20.33;13.97;;;;;;;3.95;60.38;97722.91;5094539;28;20183;-62
2022/03/20 04:36:11;;;;;;;23.57;15.00;;;;;;;3.95;60.31;97727.28;5094422;28;20644;-63
2022/03/20 04:38:37;;;;;;;24.00;14.67;;;;;;;3.93;60.36;97727.44;5094159;28;20168;-62
2022/03/20 04:41:03;;;;;;;24.23;15.67;;;;;;;3.99;61.03;97734.56;5093842;28;20667;-65
2022/03/20 04:43:29;;;;;;;23.37;15.23;;;;;;;3.92;60.70;97730.16;5093313;28;20207;-62
2022/03/20 04:45:54;;;;;;;21.90;14.80;;;;;;;3.99;61.33;97726.78;5094341;28;20628;-63
2022/03/20 04:59:16;;;;;;;21.87;14.37;;;;;;;3.90;61.76;97738.09;5093751;28;20584;-62
2022/03/20 05:01:41;;;;;;;22.77;14.60;;;;;;;3.98;62.02;97737.31;5093905;28;20263;-62
2022/03/20 05:04:07;;;;;;;25.17;14.80;;;;;;;3.99;61.27;97731.97;5075300;28;20628;-63
2022/03/20 05:06:32;;;;;;;23.40;15.90;;;;;;;3.95;61.92;97735.88;5093874;28;20195;-63
2022/03/20 05:13:19;;;;;;;22.83;14.73;;;;;;;3.88;62.24;97736.66;5094210;28;20532;-63
2022/03/20 05:14:28;;;;;;;23.40;14.03;;;;;;;3.76;62.80;97743.94;5093375;28;20195;-63
2022/03/20 05:16:53;;;;;;;22.67;14.33;;;;;;;3.64;62.75;97735.66;5093721;28;20176;-62
2022/03/20 05:19:19;;;;;;;25.43;15.17;;;;;;;3.62;63.57;97734.22;5093621;28;20653;-63
2022/03/20 05:21:48;;;;;;;23.40;14.83;;;;;;;3.76;63.02;97736.97;5075404;28;20279;-62
2022/03/20 05:24:14;;;;;;;24.50;14.40;;;;;;;3.76;63.06;97744.75;5093208;28;20185;-63
2022/03/20 05:26:40;;;;;;;28.10;15.60;;;;;;;3.91;62.38;97739.72;5093136;28;20552;-63
2022/03/20 05:29:06;;;;;;;24.17;15.77;;;;;;;3.86;62.83;97749.78;5092840;28;20180;-62
2022/03/20 05:31:32;;;;;;;23.40;15.03;;;;;;;3.87;63.53;97748.81;5093249;28;20200;-63
2022/03/20 05:33:59;;;;;;;21.43;14.63;;;;;;;3.91;63.33;97757.88;5093123;28;20180;-63
2022/03/20 05:36:28;;;;;;;24.50;15.03;;;;;;;3.90;64.04;97753.66;5093679;28;20184;-62
2022/03/20 05:38:55;;;;;;;26.00;15.27;;;;;;;4.00;63.36;97756.94;5093393;28;20230;-62
2022/03/20 05:44:04;;;;;;;23.77;15.67;;;;;;;3.99;62.76;97762.28;5093285;28;20188;-63
2022/03/20 05:46:29;;;;;;;24.20;15.60;;;;;;;3.91;63.76;97762.25;5075410;28;20617;-62
2022/03/20 05:48:55;;;;;;;22.80;15.20;;;;;;;4.12;62.95;97758.22;5075417;28;20185;-63
2022/03/20 05:51:20;;;;;;;21.20;14.80;;;;;;;4.09;62.68;97760.34;5092757;28;20560;-62
2022/03/20 05:53:46;;;;;;;24.80;15.13;;;;;;;4.07;63.21;97762.25;5092933;28;20191;-63
2022/03/20 05:58:57;;;;;;;24.37;15.87;;;;;;;4.22;62.33;97770.25;5099908;28;20198;-62
2022/03/20 06:01:23;;;;;;;20.33;14.57;;;;;;;4.31;62.89;97774.44;5099804;28;20176;-63
2022/03/20 06:03:49;;;;;;;22.17;14.40;;;;;;;4.27;63.29;97771.38;5099907;28;20517;-63
2022/03/20 06:06:15;;;;;;;23.83;15.97;;;;;;;4.40;62.58;97769.06;5099756;28;20219;-63
2022/03/20 06:08:40;;;;;;;23.00;15.40;;;;;;;4.53;62.49;97778.97;5099608;28;20177;-63
2022/03/20 06:11:06;;;;;;;26.30;16.40;;;;;;;4.67;61.94;97787.88;5099627;28;20208;-63
2022/03/20 06:13:33;;;;;;;25.10;15.27;;;;;;;4.59;62.02;97784.31;5099912;28;20180;-63
2022/03/20 06:15:58;;;;;;;24.77;15.37;;;;;;;4.75;62.06;97782.66;5099865;28;20188;-63
2022/03/20 06:18:26;;;;;;;25.87;15.23;;;;;;;4.77;61.65;97785.91;5099593;28;20510;-63
2022/03/20 06:20:52;;;;;;;25.67;16.47;;;;;;;4.84;61.43;97789.50;5099161;28;20216;-61
2022/03/20 06:23:17;;;;;;;22.80;16.13;;;;;;;4.98;61.49;97781.81;5099031;28;20633;-62
2022/03/20 06:25:43;;;;;;;24.70;16.40;;;;;;;5.07;61.15;97784.41;5098758;28;20242;-61
2022/03/20 06:28:09;;;;;;;23.03;16.07;;;;;;;5.14;60.83;97791.34;5099405;28;20187;-62
2022/03/20 06:30:35;;;;;;;25.33;15.23;;;;;;;5.13;61.08;97787.13;5099510;28;20562;-61
2022/03/20 06:33:04;;;;;;;25.17;16.43;;;;;;;5.29;60.12;97792.28;5099678;28;20177;-61
2022/03/20 06:35:30;;;;;;;27.53;16.30;;;;;;;5.31;60.00;97795.50;5099426;28;20621;-62
2022/03/20 06:37:56;;;;;;;25.17;16.47;;;;;;;5.41;60.05;97800.50;5081068;28;20176;-61
2022/03/20 06:40:22;;;;;;;22.93;16.63;;;;;;;5.47;60.19;97799.00;5099350;28;20176;-61
2022/03/20 06:42:47;;;;;;;29.83;17.13;;;;;;;5.50;60.14;97801.28;5099765;28;20183;-61
2022/03/20 06:45:14;;;;;;;25.63;16.57;;;;;;;5.76;60.02;97801.78;5081274;28;20176;-61
2022/03/20 06:47:41;;;;;;;22.63;14.50;;;;;;;6.08;59.11;97803.41;5099376;28;20207;-61
2022/03/20 06:50:08;;;;;;;26.23;15.73;;;;;;;6.19;58.77;97806.44;5098887;28;20211;-62
2022/03/20 06:52:35;;;;;;;28.30;16.47;;;;;;;6.31;58.32;97795.59;5099098;28;20216;-62
2022/03/20 06:55:03;;;;;;;27.47;16.63;;;;;;;6.18;59.07;97804.03;5098956;28;20303;-62
2022/03/20 06:57:30;;;;;;;23.30;17.00;;;;;;;6.37;58.86;97800.94;5099144;28;20168;-61
2022/03/20 06:59:57;;;;;;;26.70;15.63;;;;;;;6.46;58.49;97805.09;5099206;28;20176;-61
2022/03/20 07:02:23;;;;;;;26.42;17.98;;;;;;;6.84;57.27;97805.09;5098035;28;20370;-61
2022/03/20 07:04:51;;;;;;;23.67;18.33;;;;;;;6.90;57.11;97812.19;5097635;28;20860;-62
2022/03/20 07:07:20;;;;;;;25.92;18.90;;;;;;;7.08;57.09;97808.25;5094339;28;20390;-62
2022/03/20 07:09:46;;;;;;;25.33;18.43;;;;;;;6.97;57.37;97820.91;5094274;28;20374;-62
2022/03/20 07:12:12;;;;;;;25.40;18.73;;;;;;;6.95;56.76;97821.09;5094731;28;20406;-62
2022/03/20 07:14:39;;;;;;;23.35;18.67;;;;;;;6.91;56.60;97824.25;5094910;28;20386;-62
2022/03/20 07:17:15;;;;;;;24.27;18.10;;;;;;;7.18;56.02;97821.03;5076528;28;20401;-62
2022/03/20 07:19:43;;;;;;;25.35;18.70;;;;;;;7.24;56.07;97827.34;5094690;28;20472;-62
2022/03/20 07:22:10;;;;;;;25.60;18.58;;;;;;;7.52;55.27;97836.13;5094642;28;20382;-62
2022/03/20 07:24:37;;;;;;;24.53;17.07;;;;;;;7.23;55.80;97830.94;5095451;28;20630;-62
2022/03/20 07:29:49;;;;;;;24.97;16.47;;;;;;;7.56;55.48;97847.00;5096028;28;20183;-62
2022/03/20 07:32:14;;;;;;;24.30;17.20;;;;;;;7.70;55.24;97825.31;5095775;28;20644;-63
2022/03/20 07:34:40;;;;;;;23.77;16.40;;;;;;;7.64;54.95;97836.47;5095367;28;20181;-63
2022/03/20 07:37:07;;;;;;;25.07;16.87;;;;;;;7.57;54.78;97838.19;5095443;28;20169;-63
2022/03/20 07:39:34;;;;;;;24.43;16.87;;;;;;;7.56;54.42;97847.00;5095823;28;20189;-64
2022/03/20 07:42:00;;;;;;;22.80;15.30;;;;;;;8.39;61.89;97838.75;5095886;28;20272;-64
2022/03/20 07:44:25;;;;;;;;;;;;;;;9.04;62.65;97852.34;5096105;28;20036;-64
2022/03/20 07:46:52;;;;;;;;;;;;;;;9.88;56.41;97846.97;5095535;28;19961;-65
2022/03/20 07:49:21;;;;;;;;;;;;;;;9.44;50.34;97848.19;5095587;28;19961;-64
2022/03/20 07:51:47;;;;;;;;;;;;;;;9.03;51.24;97842.06;5095529;28;19923;-62
2022/03/20 07:54:13;;;;;;;;;;;;;;;8.85;51.33;97839.97;5095426;28;19916;-64
2022/03/20 07:56:38;;;;;;;;;;;;;;;8.26;52.62;97844.59;5095801;28;19923;-64
2022/03/20 07:59:07;;;;;;;24.13;16.63;;;;;;;8.30;52.65;97854.53;5095098;28;20248;-65
2022/03/20 08:01:33;;;;;;;21.37;16.43;;;;;;;8.23;53.15;97852.81;5095117;28;20191;-64
2022/03/20 08:03:59;;;;;;;24.53;17.40;;;;;;;8.38;52.54;97845.75;5094904;28;20189;-65
2022/03/20 08:06:25;;;;;;;24.37;16.50;;;;;;;8.43;52.54;97856.47;5094911;28;20173;-64
2022/03/20 08:08:50;;;;;;;27.13;16.87;;;;;;;8.56;52.54;97858.41;5094736;28;20180;-64
2022/03/20 08:11:15;;;;;;;24.43;16.33;;;;;;;8.61;52.37;97864.69;5094788;28;20317;-65
2022/03/20 08:13:43;;;;;;;29.77;17.30;;;;;;;8.76;52.00;97859.38;5094615;28;20187;-64
2022/03/20 08:16:12;;;;;;;25.90;16.80;;;;;;;8.72;53.04;97858.94;5094791;28;20291;-62
2022/03/20 08:18:37;;;;;;;23.07;16.60;;;;;;;8.79;53.41;97859.00;5094421;28;20216;-65
2022/03/20 08:21:03;;;;;;;24.10;17.17;;;;;;;8.93;52.61;97852.88;5094207;28;20512;-64
2022/03/20 08:23:28;;;;;;;22.57;15.43;;;;;;;9.23;51.75;97856.13;5076316;28;20176;-64
2022/03/20 08:25:54;;;;;;;22.17;16.53;;;;;;;9.24;51.41;97859.53;5093984;28;20192;-62
2022/03/20 08:28:19;;;;;;;28.90;16.77;;;;;;;9.25;51.50;97861.94;5094431;28;20169;-62
2022/03/20 08:30:44;;;;;;;27.83;16.90;;;;;;;9.53;50.02;97865.34;5093920;28;20613;-62
2022/03/20 08:33:10;;;;;;;25.83;17.23;;;;;;;9.41;50.20;97861.69;5093941;28;20172;-63
2022/03/20 08:35:35;;;;;;;27.97;17.10;;;;;;;9.57;50.41;97863.16;5094046;28;20173;-62
2022/03/20 08:38:03;;;;;;;25.37;16.37;;;;;;;9.46;50.72;97858.47;5093964;28;20255;-62
2022/03/20 08:40:28;;;;;;;27.90;15.83;;;;;;;9.79;50.21;97863.88;5093818;28;20637;-62
2022/03/20 08:42:55;;;;;;;25.17;17.13;;;;;;;9.82;50.23;97858.22;5094240;28;20198;-61
2022/03/20 08:45:31;;;;;;;24.57;16.37;;;;;;;9.74;50.30;97863.66;5090949;28;20185;-62
2022/03/20 08:47:57;;;;;;;23.97;16.50;;;;;;;9.68;50.11;97862.63;5075473;28;20194;-64
2022/03/20 08:50:23;;;;;;;25.90;17.17;;;;;;;10.04;49.54;97875.44;5084032;28;20180;-62
2022/03/20 08:52:49;;;;;;;26.00;16.97;;;;;;;9.97;49.70;97880.66;5078895;28;20177;-62
2022/03/20 08:55:16;;;;;;;24.30;16.93;;;;;;;9.92;49.59;97880.44;5073003;28;20225;-62
2022/03/20 08:57:47;;;;;;;24.03;16.57;;;;;;;9.98;49.54;97884.88;5073077;28;20185;-62
2022/03/20 09:00:14;;;;;;;21.37;16.43;;;;;;;10.18;49.45;97892.88;5073356;28;20173;-64
2022/03/20 09:02:43;;;;;;;23.53;16.90;;;;;;;10.24;49.04;97889.47;5073412;28;20266;-64
2022/03/20 09:05:11;;;;;;;22.90;16.73;;;;;;;10.21;49.74;97897.69;5073308;28;20177;-63
2022/03/20 09:07:42;;;;;;;26.40;16.70;;;;;;;10.54;49.27;97891.75;5073421;28;20181;-62
2022/03/20 09:10:09;;;;;;;25.93;17.80;;;;;;;10.54;48.40;97900.41;5073733;28;20204;-63
2022/03/20 09:12:35;;;;;;;25.33;17.00;;;;;;;10.69;48.90;97892.38;5073296;28;20228;-63
2022/03/20 09:15:02;;;;;;;25.50;16.50;;;;;;;10.72;48.25;97894.59;5073345;28;20173;-63
2022/03/20 09:20:12;;;;;;;26.17;16.13;;;;;;;10.76;48.65;97895.81;5073487;28;20164;-63
2022/03/20 09:22:37;;;;;;;26.57;17.10;;;;;;;10.53;49.31;97898.00;5055451;28;20533;-63
2022/03/20 09:25:04;;;;;;;21.20;15.70;;;;;;;10.64;48.34;97902.66;5073083;28;20178;-63
2022/03/20 09:27:29;;;;;;;25.63;15.80;;;;;;;10.73;48.06;97904.09;5072849;28;20188;-63
2022/03/20 09:29:55;;;;;;;24.97;16.77;;;;;;;10.78;48.28;97905.09;5072712;28;20173;-63
2022/03/20 09:32:20;;;;;;;25.07;16.63;;;;;;;11.09;47.73;97906.34;5072610;28;20662;-63
2022/03/20 09:34:46;;;;;;;27.40;16.90;;;;;;;11.17;48.19;97904.31;5072735;28;20525;-62
2022/03/20 09:37:11;;;;;;;29.47;16.93;;;;;;;11.17;47.45;97898.25;5054803;28;20185;-62
2022/03/20 09:39:37;;;;;;;25.80;17.20;;;;;;;11.18;47.68;97899.88;5072714;28;20295;-63
2022/03/20 09:42:03;;;;;;;23.77;16.83;;;;;;;11.25;48.21;97908.56;5072627;28;20264;-63
2022/03/20 09:44:29;;;;;;;24.50;16.17;;;;;;;11.29;48.02;97903.69;5072939;28;20181;-63
2022/03/20 09:46:55;;;;;;;24.10;16.47;;;;;;;11.36;47.62;97912.38;5054884;28;20216;-63
2022/03/20 09:49:25;;;;;;;23.30;16.60;;;;;;;11.53;47.29;97903.06;5072511;28;20216;-63
2022/03/20 09:51:51;;;;;;;26.27;16.00;;;;;;;11.52;47.26;97911.97;5073229;28;20193;-64
2022/03/20 09:54:17;;;;;;;26.67;16.70;;;;;;;11.61;46.83;97908.09;5072693;28;20297;-65
2022/03/20 09:56:43;;;;;;;24.40;15.97;;;;;;;11.65;46.64;97914.53;5072408;28;20181;-65
2022/03/20 09:59:09;;;;;;;23.23;15.70;;;;;;;11.81;46.25;97913.34;5072978;28;20184;-64
2022/03/20 10:01:35;;;;;;;20.53;14.93;;;;;;;12.01;46.14;97916.72;5072702;28;20188;-64
2022/03/20 10:04:11;;;;;;;24.87;16.17;;;;;;;12.11;45.86;97911.81;5073188;28;20235;-64
2022/03/20 10:06:37;;;;;;;24.10;15.83;;;;;;;12.25;45.44;97918.66;5073209;28;20625;-65
2022/03/20 10:09:05;;;;;;;22.27;14.57;;;;;;;12.64;44.62;97911.56;5054585;28;20185;-65
2022/03/20 10:11:33;;;;;;;20.67;15.00;;;;;;;12.69;43.72;97907.28;5074933;28;20203;-65
2022/03/20 10:14:14;;;;;;;19.97;14.00;;;;;;;12.69;43.86;97912.53;5079120;28;20216;-64
2022/03/20 10:16:42;;;;;;;22.30;13.93;;;;;;;13.06;43.09;97913.50;5078305;28;20196;-65
2022/03/20 10:19:40;;;;;;;20.47;13.83;;;;;;;13.27;42.10;97914.97;5072875;28;20629;-65
2022/03/20 10:22:12;;;;;;;20.80;13.63;;;;;;;13.32;42.17;97929.09;5025441;28;20224;-65
2022/03/20 10:24:46;;;;;;;21.30;13.67;;;;;;;13.64;41.17;97924.56;5080886;28;20197;-66
2022/03/20 10:27:16;;;;;;;21.57;13.00;;;;;;;13.86;41.41;97929.41;5079568;28;20177;-63
2022/03/20 10:30:08;;;;;;;23.57;12.73;;;;;;;14.11;41.15;97919.59;5092722;28;20177;-64
2022/03/20 10:32:35;;;;;;;19.77;12.80;;;;;;;14.40;41.08;97932.06;5075555;28;20217;-64
2022/03/20 10:35:02;;;;;;;;;;;;;;;14.68;40.29;97930.66;5054754;28;20029;-64
2022/03/20 10:37:55;;;;;;;20.73;14.00;;;;;;;15.17;39.65;97917.13;5071661;28;20408;-64
2022/03/20 10:40:27;;;;;;;19.02;14.18;;;;;;;15.08;39.68;97923.78;5053710;28;20906;-63
2022/03/20 10:43:08;;;;;;;19.92;13.45;;;;;;;15.23;39.79;97920.69;5075367;28;20394;-63
2022/03/20 10:45:57;;;;;;;16.40;12.60;;;;;;;15.50;39.59;97913.13;5074788;28;20779;-64
2022/03/20 10:48:30;;;;;;;19.10;12.57;;;;;;;15.47;40.01;97917.06;5080680;28;20441;-64
2022/03/20 10:50:56;;;;;;;17.97;11.30;;;;;;;15.77;40.45;97919.63;5095893;28;20201;-64
2022/03/20 10:53:21;;;;;;;16.83;11.35;;;;;;;16.10;39.57;97919.78;5086274;28;20502;-65
2022/03/20 10:55:47;;;;;;;19.83;11.93;;;;;;;16.10;39.82;97917.16;5076553;28;20276;-64
2022/03/20 10:58:26;;;;;;;17.60;11.40;;;;;;;15.82;40.14;97911.78;5082503;28;20192;-64
2022/03/20 11:00:52;;;;;;;20.93;11.40;;;;;;;15.95;39.46;97916.81;5074160;28;20176;-64
2022/03/20 11:03:22;;;;;;;17.03;11.67;;;;;;;15.78;39.44;97921.19;5084555;28;20210;-64
2022/03/20 11:05:48;;;;;;;19.13;11.17;;;;;;;15.50;39.83;97913.13;5075077;28;20188;-63
2022/03/20 11:08:14;;;;;;;21.87;11.87;;;;;;;15.81;40.15;97912.81;5083658;28;20182;-64
2022/03/20 11:10:44;;;;;;;17.90;11.73;;;;;;;15.37;40.52;97917.63;5076735;28;20279;-63
2022/03/20 11:13:13;;;;;;;16.60;11.13;;;;;;;16.01;40.18;97915.06;5082456;28;20621;-63
2022/03/20 11:15:40;;;;;;;18.77;10.33;;;;;;;16.27;38.59;97914.56;5077489;28;20647;-63
2022/03/20 11:18:06;;;;;;;17.20;11.37;;;;;;;16.39;38.53;97915.31;5086938;28;20728;-63
2022/03/20 11:20:32;;;;;;;15.10;11.07;;;;;;;16.05;39.39;97914.38;5060306;28;20256;-63
2022/03/20 11:23:01;;;;;;;17.47;10.87;;;;;;;15.82;38.97;97921.56;5093158;28;20180;-64
2022/03/20 11:25:30;;;;;;;17.73;10.63;;;;;;;15.87;39.20;97924.31;5075636;28;20184;-63
2022/03/20 11:28:03;;;;;;;23.50;11.30;;;;;;;15.48;39.00;97923.16;5081132;28;20656;-63
2022/03/20 11:30:31;;;;;;;16.90;10.90;;;;;;;14.98;40.21;97919.06;5083278;28;20177;-63
2022/03/20 11:33:00;;;;;;;18.87;11.27;;;;;;;15.37;40.28;97919.47;5075206;28;20189;-64
2022/03/20 11:35:30;;;;;;;16.23;11.60;;;;;;;15.54;40.21;97920.44;5074459;28;20185;-64
2022/03/20 11:37:59;;;;;;;15.20;10.90;;;;;;;15.76;39.97;97920.66;5080993;28;20185;-63
2022/03/20 11:40:26;;;;;;;18.60;10.27;;;;;;;15.73;39.57;97926.38;5094729;28;20192;-65
2022/03/20 11:43:15;;;;;;;16.33;9.93;;;;;;;15.37;39.08;97911.53;5095024;28;20216;-64
2022/03/20 11:46:32;;;;;;;16.77;10.27;;;;;;;15.46;39.77;97914.63;5069071;28;20185;-64
2022/03/20 11:49:20;;;;;;;17.97;9.83;;;;;;;15.59;39.57;97906.53;5088997;28;20240;-63
2022/03/20 11:52:08;;;;;;;13.57;10.00;;;;;;;15.41;39.96;97904.75;5074314;28;20220;-63
2022/03/20 11:54:42;;;;;;;15.80;10.23;;;;;;;14.87;40.10;97904.00;5086059;28;20233;-63
2022/03/20 11:57:26;;;;;;;14.17;9.77;;;;;;;15.17;40.28;97905.75;5083965;28;20231;-63